Time;durP1;ratioP1;P1;durP2;ratioP2;P2;SDS_P1;SDS_P2;PMS_P1;PMS_P2;Temp;Humidity;BMP_temperature;BMP_pressure;BME280_temperature;BME280_humidity;BME280_pressure;Samples;Min_cycle;Max_cycle;Signal;HPM_P1;HPM_P2
2021/11/17 02:26:39;;;;;;;;;49.75;37.00;;;;;11.06;66.35;101672.72;4970708;28;45328;-48
2021/11/17 02:29:32;;;;;;;;;56.50;41.25;;;;;11.06;66.27;101681.47;4963978;28;45457;-44
2021/11/17 02:32:03;;;;;;;;;56.50;43.25;;;;;11.03;66.53;101681.50;4979928;28;45418;-47
2021/11/17 02:34:47;;;;;;;;;49.25;37.75;;;;;11.05;66.53;101674.47;4980041;28;45363;-45
2021/11/17 02:37:24;;;;;;;;;52.50;40.00;;;;;11.04;66.50;101678.00;4980150;28;45471;-46
2021/11/17 02:40:14;;;;;;;;;52.50;40.00;;;;;11.04;66.54;101659.59;4980114;28;45454;-45
2021/11/17 02:42:49;;;;;;;;;55.00;40.75;;;;;11.04;66.54;101645.53;4979771;28;45316;-43
2021/11/17 02:45:20;;;;;;;;;53.50;39.25;;;;;11.03;66.44;101647.31;4980120;28;45425;-44
2021/11/17 02:48:01;;;;;;;;;50.50;40.00;;;;;11.02;66.43;101637.66;4970496;28;45322;-43
2021/11/17 02:50:44;;;;;;;;;54.75;41.75;;;;;11.02;66.53;101634.16;4970496;28;45244;-47
2021/11/17 02:53:34;;;;;;;;;56.50;41.00;;;;;11.01;66.45;101641.16;4979489;28;46285;-44
2021/11/17 02:56:16;;;;;;;;;53.00;40.25;;;;;10.99;66.57;101637.66;4980073;28;45427;-43
2021/11/17 02:59:03;;;;;;;;;54.00;39.50;;;;;10.98;66.62;101635.91;4978561;28;45290;-44
2021/11/17 03:01:46;;;;;;;;;58.25;40.75;;;;;10.92;66.78;101632.41;4979536;28;45303;-43
2021/11/17 03:04:28;;;;;;;;;52.50;38.50;;;;;10.94;66.57;101647.28;4979692;28;45410;-43
2021/11/17 03:07:11;;;;;;;;;56.50;42.75;;;;;10.93;66.22;101658.72;4979740;28;45419;-44
2021/11/17 03:09:52;;;;;;;;;57.25;43.50;;;;;10.90;66.68;101663.97;4979399;28;45305;-44
2021/11/17 03:12:20;;;;;;;;;51.25;39.00;;;;;10.88;66.78;101668.38;4979478;28;45501;-45
2021/11/17 03:14:57;;;;;;;;;57.50;42.50;;;;;10.84;66.80;101677.09;4979458;28;45446;-44
2021/11/17 03:17:35;;;;;;;;;52.25;41.25;;;;;10.81;66.80;101670.09;4979619;28;45481;-47
2021/11/17 03:20:16;;;;;;;;;54.50;40.00;;;;;10.80;66.74;101684.13;4979604;28;45449;-46
2021/11/17 03:23:12;;;;;;;;;61.00;44.75;;;;;10.77;66.73;101683.25;4979223;28;45396;-48
2021/11/17 03:25:59;;;;;;;;;57.00;42.50;;;;;10.76;66.79;101692.03;4979234;28;45337;-45
2021/11/17 03:28:43;;;;;;;;;57.00;42.50;;;;;10.75;66.64;101685.88;4979311;28;45450;-44
2021/11/17 03:31:17;;;;;;;;;56.25;40.25;;;;;10.75;66.63;101700.78;4979223;28;45249;-43
2021/11/17 03:33:52;;;;;;;;;55.25;41.25;;;;;10.76;66.63;101702.53;4979424;28;45165;-43
2021/11/17 03:36:36;;;;;;;;;56.50;40.75;;;;;10.76;66.59;101702.53;4977862;28;48479;-44
2021/11/17 03:39:14;;;;;;;;;59.00;44.00;;;;;10.75;66.81;101706.03;4979062;28;45331;-43
2021/11/17 03:42:16;;;;;;;;;55.00;39.00;;;;;10.75;66.59;101716.56;4979364;28;45315;-47
2021/11/17 03:44:57;;;;;;;;;57.50;44.25;;;;;10.76;66.71;101713.06;4979339;28;45244;-43
2021/11/17 03:48:10;;;;;;;;;59.50;43.25;;;;;10.67;66.68;101709.53;4972811;28;46418;-46
2021/11/17 03:51:04;;;;;;;;;51.75;42.00;;;;;10.73;66.77;101738.47;4963902;28;45256;-45
2021/11/17 03:53:49;;;;;;;;;54.50;42.50;;;;;10.73;66.83;101732.34;4986422;28;45428;-48
2021/11/17 03:56:17;;;;;;;;;57.75;45.00;;;;;10.72;66.94;101735.84;4959603;28;45270;-44
2021/11/17 03:58:52;;;;;;;;;59.50;45.75;;;;;10.72;66.88;101739.34;4959481;28;46541;-43
2021/11/17 04:01:30;;;;;;;;;55.25;43.25;;;;;10.75;67.01;101737.59;4959333;28;45274;-45
2021/11/17 04:04:04;;;;;;;;;55.00;44.25;;;;;10.75;67.01;101735.81;4959643;28;45336;-44
2021/11/17 04:06:48;;;;;;;;;56.75;44.75;;;;;10.77;67.05;101733.19;4959642;28;45305;-44
2021/11/17 04:09:26;;;;;;;;;61.00;47.25;;;;;10.77;67.00;101735.81;4959120;28;45899;-43
2021/11/17 04:11:51;;;;;;;;;57.25;44.25;;;;;10.78;67.02;101733.22;4959454;28;45420;-44
2021/11/17 04:14:54;;;;;;;;;60.00;46.50;;;;;10.80;67.00;101730.59;4959374;28;45272;-43
2021/11/17 04:17:43;;;;;;;;;60.75;47.00;;;;;10.81;66.98;101735.84;4959325;28;45257;-44
2021/11/17 04:20:21;;;;;;;;;63.00;47.50;;;;;10.83;66.96;101739.34;4959379;28;46074;-44
2021/11/17 04:23:01;;;;;;;;;64.75;47.75;;;;;10.87;66.99;101734.97;4959012;28;45325;-44
2021/11/17 04:25:35;;;;;;;;;61.25;47.25;;;;;10.90;66.88;101753.38;4959278;28;45241;-43
2021/11/17 04:28:22;;;;;;;;;67.25;48.75;;;;;10.92;66.92;101750.75;4959242;28;45416;-45
2021/11/17 04:31:06;;;;;;;;;60.25;44.00;;;;;10.95;66.96;101753.38;4958927;28;45399;-45
2021/11/17 04:33:32;;;;;;;;;67.50;50.00;;;;;10.96;66.92;101756.00;4959416;28;45217;-44
2021/11/17 04:36:10;;;;;;;;;61.50;47.25;;;;;10.99;66.87;101758.66;4959398;28;45316;-44
2021/11/17 04:38:54;;;;;;;;;60.75;47.50;;;;;11.01;66.96;101764.78;4957663;28;45975;-45
2021/11/17 04:41:53;;;;;;;;;61.25;46.00;;;;;11.03;66.98;101763.03;4958831;28;45241;-45
2021/11/17 04:44:50;;;;;;;;;54.25;42.75;;;;;11.03;67.05;101765.66;4957762;28;45392;-45
2021/11/17 04:47:18;;;;;;;;;62.00;45.75;;;;;11.06;67.04;101772.69;4960458;28;45466;-44
2021/11/17 04:50:02;;;;;;;;;55.25;43.25;;;;;11.07;67.00;101769.19;4965080;28;45278;-44
2021/11/17 04:52:52;;;;;;;;;56.25;45.75;;;;;11.08;67.00;101775.31;4978073;28;46153;-45
2021/11/17 04:55:24;;;;;;;;;56.50;43.50;;;;;11.08;66.99;101770.94;4978416;28;45441;-44
2021/11/17 04:58:10;;;;;;;;;52.25;39.00;;;;;11.06;67.20;101770.03;4978375;28;45170;-48
2021/11/17 05:01:10;;;;;;;;;57.75;43.00;;;;;11.06;67.24;101768.28;4978584;28;45228;-46
2021/11/17 05:03:53;;;;;;;;;59.25;46.25;;;;;11.06;67.26;101767.41;4978564;28;45332;-45
2021/11/17 05:06:21;;;;;;;;;59.75;46.75;;;;;11.07;67.22;101763.91;4978398;28;45452;-45
2021/11/17 05:08:49;;;;;;;;;67.25;51.00;;;;;11.10;67.09;101760.41;4978189;28;45326;-46
2021/11/17 05:11:22;;;;;;;;;62.75;47.00;;;;;11.11;66.99;101763.03;4978040;28;45340;-43
2021/11/17 05:14:32;;;;;;;;;61.00;48.25;;;;;11.13;67.06;101766.56;4978068;28;46240;-47
2021/11/17 05:17:11;;;;;;;;;61.00;45.75;;;;;11.15;67.15;101761.28;4976050;28;45309;-44
2021/11/17 05:20:08;;;;;;;;;58.75;44.25;;;;;11.16;67.06;101753.38;4978364;28;45307;-43
2021/11/17 05:22:42;;;;;;;;;56.75;44.00;;;;;11.17;67.01;101762.13;4964967;28;45312;-45
2021/11/17 05:25:17;;;;;;;;;68.75;53.50;;;;;11.19;67.12;101757.75;4958477;28;46110;-43
2021/11/17 05:27:51;;;;;;;;;64.25;49.00;;;;;11.21;67.14;101761.28;4965330;28;45511;-43
2021/11/17 05:30:43;;;;;;;;;66.50;49.25;;;;;11.22;67.22;101761.28;4978053;28;45362;-44
2021/11/17 05:33:28;;;;;;;;;57.25;44.75;;;;;11.23;67.15;101764.75;4977764;28;45323;-42
2021/11/17 05:36:15;;;;;;;;;55.25;42.75;;;;;11.25;67.19;101764.78;4977888;28;45263;-46
2021/11/17 05:38:49;;;;;;;;;55.00;41.50;;;;;11.25;67.13;101760.38;4976508;28;45308;-43
2021/11/17 05:41:39;;;;;;;;;60.25;44.00;;;;;11.27;67.11;101765.63;4976611;28;45350;-46
2021/11/17 05:44:24;;;;;;;;;54.75;43.00;;;;;11.27;67.28;101763.91;4976484;28;45244;-42
2021/11/17 05:47:08;;;;;;;;;57.50;43.50;;;;;11.28;67.20;101764.78;4975590;28;45268;-43
2021/11/17 05:49:58;;;;;;;;;56.00;43.50;;;;;11.28;67.37;101764.78;4959062;28;45308;-45
2021/11/17 05:53:01;;;;;;;;;54.00;43.00;;;;;11.29;67.31;101759.50;4968357;28;45269;-44
2021/11/17 05:55:48;;;;;;;;;58.00;44.00;;;;;11.27;67.31;101758.66;4937565;28;45518;-44
2021/11/17 05:58:19;;;;;;;;;51.00;40.75;;;;;11.30;67.34;101763.88;4957873;28;45354;-44
2021/11/17 06:00:53;;;;;;;;;55.25;43.00;;;;;11.31;67.24;101757.75;4958087;28;45262;-43
2021/11/17 06:03:31;;;;;;;;;58.25;43.25;;;;;11.31;67.33;101752.50;4958045;28;45387;-46
2021/11/17 06:05:56;;;;;;;;;58.25;44.75;;;;;11.32;67.33;101754.25;4957875;28;45398;-44
2021/11/17 06:08:21;;;;;;;;;53.50;42.25;;;;;11.31;67.46;101754.25;4957750;28;46024;-43
2021/11/17 06:10:51;;;;;;;;;53.00;40.50;;;;;11.29;67.56;101748.97;4957600;28;45380;-43
2021/11/17 06:13:17;;;;;;;;;52.00;40.75;;;;;11.31;67.43;101747.22;4956773;28;45347;-43
2021/11/17 06:15:45;;;;;;;;;54.00;41.75;;;;;11.31;67.52;101743.72;4956642;28;45361;-46
2021/11/17 06:18:15;;;;;;;;;55.75;42.25;;;;;11.31;67.51;101749.88;4968461;28;47549;-46
2021/11/17 06:20:41;;;;;;;;;54.25;42.50;;;;;11.31;67.59;101749.88;4962319;27;45404;-44
2021/11/17 06:23:13;;;;;;;;;54.75;42.25;;;;;11.30;67.65;101742.84;4964980;28;45464;-43
2021/11/17 06:25:41;;;;;;;;;52.75;42.25;;;;;11.30;67.62;101734.94;4962214;28;45432;-44
2021/11/17 06:28:07;;;;;;;;;54.50;40.75;;;;;11.30;67.61;101728.81;4957725;28;47075;-44
2021/11/17 06:30:39;;;;;;;;;49.25;38.75;;;;;11.30;67.62;101736.72;4969236;28;45283;-45
2021/11/17 06:33:06;;;;;;;;;46.25;34.50;;;;;11.29;67.55;101738.44;4957450;28;45345;-46
2021/11/17 06:35:32;;;;;;;;;49.25;37.25;;;;;11.27;67.77;101741.97;4955889;28;45297;-43
2021/11/17 06:37:58;;;;;;;;;49.75;37.00;;;;;11.27;67.69;101731.44;4957103;28;46096;-43
2021/11/17 06:40:23;;;;;;;;;50.00;39.00;;;;;11.27;67.67;101737.59;4957196;28;45207;-44
2021/11/17 06:42:55;;;;;;;;;46.50;36.00;;;;;11.29;67.63;101748.97;4957505;28;45409;-46
2021/11/17 06:45:24;;;;;;;;;47.50;37.00;;;;;11.29;67.63;101751.59;4957064;28;45478;-42
2021/11/17 06:47:50;;;;;;;;;47.50;40.25;;;;;11.29;67.62;101751.59;4957342;28;45224;-45
2021/11/17 06:50:18;;;;;;;;;45.50;37.75;;;;;11.30;67.80;101760.41;4965033;28;45182;-43
2021/11/17 06:52:43;;;;;;;;;46.50;36.50;;;;;11.31;67.70;101760.38;4976896;28;45402;-45
2021/11/17 06:55:09;;;;;;;;;46.00;38.00;;;;;11.29;67.79;101764.75;4976462;28;45441;-42
2021/11/17 06:57:35;;;;;;;;;44.25;37.25;;;;;11.29;67.85;101769.16;4976516;28;45449;-42
2021/11/17 07:00:03;;;;;;;;;46.25;37.75;;;;;11.26;67.96;101777.94;4976426;28;45252;-42
2021/11/17 07:02:28;;;;;;;;;49.75;39.75;;;;;11.24;67.92;101777.03;4975310;28;45478;-42
2021/11/17 07:04:53;;;;;;;;;45.75;35.25;;;;;11.21;68.02;101780.56;4975333;28;45186;-45
2021/11/17 07:07:19;;;;;;;;;43.75;36.25;;;;;11.22;68.21;101787.59;4979641;28;45401;-45
2021/11/17 07:09:44;;;;;;;;;47.00;35.75;;;;;11.22;68.12;101781.47;4979480;28;45353;-41
2021/11/17 07:12:12;;;;;;;;;43.75;35.50;;;;;11.21;68.01;101791.09;4979597;28;45243;-43
2021/11/17 07:14:39;;;;;;;;;48.00;38.75;;;;;11.24;68.09;101803.34;4979463;27;45328;-42
2021/11/17 07:17:05;;;;;;;;;46.00;36.00;;;;;11.14;67.99;101786.69;4965934;28;46038;-43
2021/11/17 07:19:31;;;;;;;;;43.25;35.75;;;;;11.13;68.18;101795.50;4959866;28;45403;-43
2021/11/17 07:21:58;;;;;;;;;46.25;35.50;;;;;11.20;68.18;101810.38;4960063;28;45355;-41
2021/11/17 07:24:25;;;;;;;;;49.75;38.00;;;;;11.18;68.07;101814.78;4959668;28;45270;-43
2021/11/17 07:26:51;;;;;;;;;47.75;37.00;;;;;11.16;68.28;101829.69;4959786;28;46241;-40
2021/11/17 07:29:16;;;;;;;;;46.00;38.50;;;;;11.15;68.34;101832.31;4959632;28;45229;-41
2021/11/17 07:31:42;;;;;;;;;45.25;37.00;;;;;11.13;68.24;101829.69;4968847;28;45681;-43
2021/11/17 07:34:08;;;;;;;;;51.00;38.50;;;;;11.14;68.20;101831.41;4979151;28;45406;-42
2021/11/17 07:36:34;;;;;;;;;51.75;38.50;;;;;11.12;68.38;101833.19;4977742;28;46964;-41
2021/11/17 07:38:59;;;;;;;;;51.00;37.50;;;;;11.13;68.48;101842.84;4978906;28;45310;-44
2021/11/17 07:41:25;;;;;;;;;48.75;34.75;;;;;11.14;68.52;101862.13;4979233;28;45328;-43
2021/11/17 07:43:51;;;;;;;;;48.75;35.00;;;;;11.14;68.39;101854.22;4978904;28;45529;-45
2021/11/17 07:46:16;;;;;;;;;46.00;37.25;;;;;11.16;68.33;101857.75;4979081;28;46177;-44
2021/11/17 07:48:41;;;;;;;;;46.75;37.00;;;;;11.16;68.29;101844.59;4999551;28;45307;-42
2021/11/17 07:51:07;;;;;;;;;46.00;37.00;;;;;11.20;68.27;101857.72;5014792;27;45240;-41
2021/11/17 07:53:33;;;;;;;;;40.75;33.75;;;;;11.21;68.28;101859.50;4978786;28;45163;-42
2021/11/17 07:56:02;;;;;;;;;41.75;34.75;;;;;11.21;68.33;101848.09;4977653;27;45477;-41
2021/11/17 07:58:32;;;;;;;;;37.25;32.25;;;;;11.25;68.23;101860.38;4977480;28;46113;-43
2021/11/17 08:00:59;;;;;;;;;42.25;35.00;;;;;11.29;68.20;101864.75;4978904;28;45406;-42
2021/11/17 08:03:29;;;;;;;;;42.75;32.25;;;;;11.30;68.46;101863.03;4977803;28;45545;-45
2021/11/17 08:05:56;;;;;;;;;41.25;35.75;;;;;11.31;68.31;101857.75;4964396;28;45427;-46
2021/11/17 08:08:23;;;;;;;;;42.25;35.50;;;;;11.33;68.46;101868.28;4959143;28;45494;-43
2021/11/17 08:10:49;;;;;;;;;38.25;32.25;;;;;11.35;68.48;101862.13;4958039;28;45259;-49
2021/11/17 08:13:15;;;;;;;;;43.50;35.25;;;;;11.37;68.28;101854.22;4959196;28;45347;-49
2021/11/17 08:15:40;;;;;;;;;44.50;37.75;;;;;11.37;68.47;101852.50;4959260;28;46218;-44
2021/11/17 08:18:07;;;;;;;;;45.00;37.25;;;;;11.43;68.35;101859.50;4958074;28;45276;-45
2021/11/17 08:20:32;;;;;;;;;45.75;35.50;;;;;11.45;68.60;101860.38;4959378;28;45325;-45
2021/11/17 08:22:58;;;;;;;;;47.00;37.00;;;;;11.48;68.43;101870.03;4958982;28;45273;-47
2021/11/17 08:25:27;;;;;;;;;45.25;37.25;;;;;11.50;68.35;101871.78;4958952;28;45300;-45
2021/11/17 08:27:53;;;;;;;;;50.75;38.75;;;;;11.50;68.48;101865.66;4958981;28;45171;-44
2021/11/17 08:30:20;;;;;;;;;48.50;36.50;;;;;11.55;68.53;101871.81;4961593;28;45394;-45
2021/11/17 08:32:46;;;;;;;;;42.00;35.25;;;;;11.57;68.63;101875.28;4959026;28;45244;-45
2021/11/17 08:35:15;;;;;;;;;44.00;38.00;;;;;11.57;68.55;101870.03;4958813;28;45464;-49
2021/11/17 08:37:41;;;;;;;;;47.25;37.00;;;;;11.62;68.57;101876.19;4958682;28;45359;-52
2021/11/17 08:40:11;;;;;;;;;44.00;36.75;;;;;11.63;68.77;101879.69;4959116;28;45390;-43
2021/11/17 08:42:37;;;;;;;;;41.50;34.50;;;;;11.63;68.85;101883.19;4958679;28;45379;-43
2021/11/17 08:45:04;;;;;;;;;42.50;34.00;;;;;11.65;68.73;101878.81;4958305;28;46378;-46
2021/11/17 08:47:29;;;;;;;;;38.50;32.25;;;;;11.65;68.89;101894.59;4958801;28;45459;-43
2021/11/17 08:49:55;;;;;;;;;33.50;32.25;;;;;11.64;68.69;101884.94;4965527;28;45405;-54
2021/11/17 08:52:25;;;;;;;;;40.50;32.75;;;;;11.66;68.76;101885.84;4977947;28;45309;-43
2021/11/17 08:54:51;;;;;;;;;34.75;32.25;;;;;11.70;68.85;101898.13;4977872;28;46331;-43
2021/11/17 08:57:19;;;;;;;;;39.25;33.50;;;;;11.73;69.04;101893.72;4977358;28;45396;-44
2021/11/17 08:59:46;;;;;;;;;38.50;33.25;;;;;11.69;69.14;101888.44;4978178;28;45331;-42
2021/11/17 09:02:13;;;;;;;;;47.25;35.75;;;;;11.75;69.11;101887.59;4977898;28;45402;-43
2021/11/17 09:04:39;;;;;;;;;41.75;33.00;;;;;11.75;69.02;101884.94;4977861;28;46309;-43
2021/11/17 09:07:05;;;;;;;;;37.25;29.25;;;;;11.79;69.15;101899.00;4977597;28;45178;-40
2021/11/17 09:09:30;;;;;;;;;42.75;33.50;;;;;11.76;69.09;101894.63;4966122;28;45480;-43
2021/11/17 09:11:55;;;;;;;;;40.25;34.00;;;;;11.84;69.01;101898.09;4958061;28;45320;-42
2021/11/17 09:14:21;;;;;;;;;31.25;29.50;;;;;11.83;69.21;101891.06;4970082;28;46408;-41
2021/11/17 09:16:47;;;;;;;;;40.50;33.50;;;;;11.87;69.07;101891.94;4965832;28;45242;-46
2021/11/17 09:19:12;;;;;;;;;42.50;33.25;;;;;11.92;68.95;101902.50;4970838;28;45281;-42
2021/11/17 09:21:41;;;;;;;;;39.50;31.75;;;;;11.93;69.07;101898.97;4972813;28;45486;-43
2021/11/17 09:24:08;;;;;;;;;48.00;35.50;;;;;11.94;69.16;101898.97;4972046;28;45431;-44
2021/11/17 09:26:35;;;;;;;;;39.25;31.75;;;;;11.99;69.02;101897.25;4964191;28;45396;-44
2021/11/17 09:29:03;;;;;;;;;50.75;35.50;;;;;12.00;69.09;101899.00;4971038;28;45376;-44
2021/11/17 09:31:31;;;;;;;;;46.75;37.00;;;;;12.02;68.92;101897.25;4967624;28;46508;-46
2021/11/17 09:33:58;;;;;;;;;36.25;27.75;;;;;12.07;69.07;101901.63;4969190;28;47052;-44
2021/11/17 09:36:27;;;;;;;;;46.00;35.75;;;;;12.09;68.97;101902.47;4964388;28;45565;-44
2021/11/17 09:38:55;;;;;;;;;41.75;34.25;;;;;12.10;69.26;101909.50;4965923;28;45451;-43
2021/11/17 09:41:50;;;;;;;;;56.50;43.75;;;;;12.16;69.39;101914.78;4968933;28;45568;-46
2021/11/17 09:44:36;;;;;;;;;34.75;28.50;;;;;12.17;69.50;101921.81;4962625;28;45428;-44
2021/11/17 09:47:05;;;;;;;;;102.00;95.50;;;;;12.18;69.40;101920.94;4968566;28;45360;-44
2021/11/17 09:50:08;;;;;;;;;126.75;121.25;;;;;12.23;69.17;101928.84;4968403;28;45473;-43
2021/11/17 09:53:00;;;;;;;;;48.50;38.50;;;;;12.25;69.47;101927.94;4984841;28;45460;-43
2021/11/17 09:55:49;;;;;;;;;36.50;30.50;;;;;12.26;69.22;101932.31;4973084;28;45502;-44
2021/11/17 09:58:20;;;;;;;;;36.25;33.25;;;;;12.28;69.32;101941.09;4976580;28;45461;-43
2021/11/17 10:01:09;;;;;;;;;28.25;25.75;;;;;12.30;69.38;101939.34;4970730;28;45587;-43
2021/11/17 10:03:36;;;;;;;;;41.75;33.75;;;;;12.33;69.40;101949.00;4969261;28;45333;-45
2021/11/17 10:06:49;;;;;;;;;46.00;37.50;;;;;12.34;69.17;101945.50;4969846;28;46145;-44
2021/11/17 10:12:49;;;;;;;;;40.75;33.75;;;;;12.45;69.15;101948.09;4974323;28;45344;-41
2021/11/17 10:15:12;;;;;;;;;39.25;33.00;;;;;12.48;69.39;101942.81;4962748;28;45360;-41
2021/11/17 10:17:49;;;;;;;;;47.25;35.50;;;;;12.51;69.21;101951.59;4964490;28;47233;-43
2021/11/17 10:20:14;;;;;;;;;46.50;36.25;;;;;12.55;69.02;101954.22;4968099;28;45582;-41
2021/11/17 10:22:43;;;;;;;;;44.75;38.25;;;;;12.58;69.43;101948.91;4962342;28;45261;-41
2021/11/17 10:25:13;;;;;;;;;37.50;32.75;;;;;12.61;69.23;101949.78;4966853;28;45517;-41
2021/11/17 10:27:57;;;;;;;;;42.25;34.25;;;;;12.64;69.35;101943.63;4966301;28;46227;-41
2021/11/17 10:30:33;;;;;;;;;39.75;32.50;;;;;12.67;69.50;101944.50;4966840;28;45308;-42
2021/11/17 10:33:13;;;;;;;;;40.50;33.00;;;;;12.69;69.59;101941.84;4973401;28;45468;-41
2021/11/17 10:35:53;;;;;;;;;43.75;35.25;;;;;12.70;69.52;101940.09;4963316;28;45593;-43
2021/11/17 10:38:28;;;;;;;;;43.75;36.25;;;;;12.78;69.22;101943.56;4966327;28;48352;-42
2021/11/17 10:40:59;;;;;;;;;42.25;34.00;;;;;12.81;69.05;101947.06;4968882;28;45465;-41
2021/11/17 10:43:37;;;;;;;;;39.00;34.50;;;;;12.84;69.25;101952.34;4972702;28;45294;-42
2021/11/17 10:46:08;;;;;;;;;42.50;34.00;;;;;12.89;69.64;101944.41;4972664;28;45249;-50
2021/11/17 10:48:38;;;;;;;;;41.25;33.25;;;;;12.92;69.41;101940.91;4970833;28;45383;-49
2021/11/17 10:51:13;;;;;;;;;37.25;32.75;;;;;12.99;69.59;101943.50;4975307;28;45341;-50
2021/11/17 10:53:39;;;;;;;;;40.25;33.25;;;;;13.05;69.66;101945.22;4977159;28;45370;-49
2021/11/17 11:07:26;;;;;;;;;40.00;32.00;;;;;13.29;69.71;101933.63;5974348;23;45880;-48
2021/11/17 11:15:20;;;;;;;;;38.75;34.75;;;;;13.29;69.68;101915.13;5682092;23;46605;-48
2021/11/17 11:18:04;;;;;;;;;36.75;33.50;;;;;13.46;69.56;101938.84;4977032;28;45511;-50
2021/11/17 11:20:56;;;;;;;;;37.00;32.50;;;;;13.49;69.69;101940.56;4974948;28;45446;-49
2021/11/17 11:23:36;;;;;;;;;38.75;33.50;;;;;13.54;69.47;101943.19;4977411;28;45729;-49
2021/11/17 11:26:13;;;;;;;;;45.75;33.75;;;;;13.57;69.30;101936.13;4982301;28;45456;-49
2021/11/17 11:28:50;;;;;;;;;31.50;30.25;;;;;13.58;69.26;101922.00;4981856;28;45285;-48
2021/11/17 11:31:41;;;;;;;;;32.25;31.00;;;;;13.65;69.28;101926.34;4974003;28;46261;-50
2021/11/17 11:34:06;;;;;;;;;37.00;32.50;;;;;13.71;69.56;101928.09;4972565;28;45285;-48
2021/11/17 11:36:46;;;;;;;;;40.25;34.75;;;;;13.76;69.47;101928.03;4980755;28;45242;-47
2021/11/17 11:39:11;;;;;;;;;38.75;31.50;;;;;13.78;69.42;101926.25;4982341;28;45391;-49
2021/11/17 11:42:02;;;;;;;;;44.00;32.75;;;;;13.81;69.04;101931.50;4981906;28;46331;-66
2021/11/17 11:44:42;;;;;;;;;40.75;34.00;;;;;13.85;69.07;101927.06;4981684;28;45170;-50
2021/11/17 11:47:10;;;;;;;;;36.75;32.75;;;;;13.89;68.80;101926.19;4981269;28;45406;-42
2021/11/17 11:49:50;;;;;;;;;27.50;25.50;;;;;13.93;69.18;101920.81;4981764;28;45423;-43
2021/11/17 11:52:24;;;;;;;;;34.25;29.75;;;;;13.98;68.99;101932.22;4981549;28;46705;-42
2021/11/17 11:54:50;;;;;;;;;33.25;29.50;;;;;14.05;68.73;101924.25;4982060;28;45298;-49
2021/11/17 11:57:31;;;;;;;;;35.00;32.50;;;;;14.13;68.88;101931.19;4978601;28;45248;-45
2021/11/17 12:00:15;;;;;;;;;38.50;31.75;;;;;14.23;68.99;101920.56;4981854;28;45150;-45
2021/11/17 12:02:50;;;;;;;;;32.00;30.00;;;;;14.34;68.80;101926.59;4981965;28;46140;-45
2021/11/17 12:06:01;;;;;;;;;30.75;30.00;;;;;14.43;68.53;101928.28;4981421;28;45348;-46
2021/11/17 12:08:34;;;;;;;;;30.75;29.25;;;;;14.54;68.54;101934.31;4979591;28;45584;-44
2021/11/17 12:11:02;;;;;;;;;28.25;27.00;;;;;14.62;68.54;101931.56;4982159;28;45431;-46
2021/11/17 12:13:32;;;;;;;;;26.75;26.00;;;;;14.72;69.01;101932.38;4981157;28;47119;-47
2021/11/17 12:16:05;;;;;;;;;30.25;28.50;;;;;14.79;68.49;101924.31;4979325;28;45260;-47
2021/11/17 12:18:48;;;;;;;;;28.00;25.50;;;;;14.87;68.33;101921.56;4981790;28;45411;-45
2021/11/17 12:21:25;;;;;;;;;32.00;30.00;;;;;14.93;68.25;101921.50;4981417;28;45368;-45
2021/11/17 12:24:01;;;;;;;;;28.50;23.50;;;;;15.01;68.47;101916.09;4976523;28;46116;-45
2021/11/17 12:26:27;;;;;;;;;18.75;18.75;;;;;15.12;68.37;101915.94;4981374;28;45447;-44
2021/11/17 12:29:01;;;;;;;;;27.50;23.75;;;;;15.23;67.90;101914.00;4980961;28;45324;-41
2021/11/17 12:31:35;;;;;;;;;24.50;24.00;;;;;15.35;68.23;101910.28;4975317;28;45392;-46
2021/11/17 12:34:26;;;;;;;;;27.00;25.75;;;;;15.49;67.65;101919.81;4980803;28;45403;-44
2021/11/17 12:37:08;;;;;;;;;24.00;21.25;;;;;15.62;68.15;101920.47;4979212;28;45462;-45
2021/11/17 12:39:46;;;;;;;;;26.00;22.50;;;;;15.75;67.75;101922.03;4981273;28;45328;-41
2021/11/17 12:42:11;;;;;;;;;21.50;21.00;;;;;15.88;67.73;101920.91;4981195;28;45796;-39
2021/11/17 12:44:44;;;;;;;;;28.25;27.25;;;;;15.98;67.68;101928.72;4980900;28;45336;-39
2021/11/17 12:47:30;;;;;;;;;24.25;22.25;;;;;16.06;67.85;101924.16;4969076;28;45440;-45
2021/11/17 12:50:19;;;;;;;;;23.25;23.25;;;;;16.14;67.60;101924.00;4992413;28;45302;-45
2021/11/17 12:53:20;;;;;;;;;30.00;27.75;;;;;16.22;67.35;101925.59;4980933;28;45505;-45
2021/11/17 12:55:48;;;;;;;;;25.75;23.00;;;;;16.28;67.72;101926.41;4969724;28;46278;-47
2021/11/17 12:58:33;;;;;;;;;25.25;21.50;;;;;16.33;67.52;101925.41;4980535;28;45323;-47
2021/11/17 13:01:11;;;;;;;;;22.75;21.25;;;;;16.40;67.51;101912.88;4981143;28;45408;-48
2021/11/17 13:04:00;;;;;;;;;26.75;25.25;;;;;16.44;67.45;101921.66;4980332;28;46089;-45
2021/11/17 13:06:31;;;;;;;;;23.25;22.00;;;;;16.48;67.32;101912.75;4980760;28;47478;-41
2021/11/17 13:09:15;;;;;;;;;26.25;21.75;;;;;16.50;67.25;101919.78;4977027;28;45374;-45
2021/11/17 13:12:11;;;;;;;;;26.50;24.75;;;;;16.53;67.00;101914.41;4981070;28;45309;-41
2021/11/17 13:14:43;;;;;;;;;28.00;26.25;;;;;16.55;67.06;101914.38;4968222;28;45219;-46
2021/11/17 13:17:19;;;;;;;;;33.00;27.75;;;;;16.53;66.79;101911.75;4980649;28;45372;-46
2021/11/17 13:19:52;;;;;;;;;42.25;33.75;;;;;16.55;66.80;101914.38;4968815;28;45625;-46
2021/11/17 13:22:24;;;;;;;;;25.00;19.75;;;;;16.54;66.30;101913.50;4980345;28;45348;-45
2021/11/17 13:24:53;;;;;;;;;24.50;22.25;;;;;16.54;66.58;101910.84;4980541;28;45619;-43
2021/11/17 13:27:24;;;;;;;;;20.50;19.75;;;;;16.54;66.68;101913.50;4980488;28;45391;-47
2021/11/17 13:29:57;;;;;;;;;25.75;22.75;;;;;16.54;66.78;101923.22;4980379;28;45328;-47
2021/11/17 13:32:35;;;;;;;;;20.25;19.25;;;;;16.52;66.68;101912.66;4980245;28;45378;-47
2021/11/17 13:35:26;;;;;;;;;22.00;20.50;;;;;16.51;66.30;101928.59;4980308;28;45382;-48
2021/11/17 13:38:32;;;;;;;;;21.00;20.00;;;;;16.48;66.40;101921.59;4980238;28;46385;-47
2021/11/17 13:41:01;;;;;;;;;21.50;21.50;;;;;16.45;66.22;101923.41;4970011;28;45230;-43
2021/11/17 13:43:27;;;;;;;;;21.50;19.75;;;;;16.41;66.48;101927.91;4979921;28;45377;-45
2021/11/17 13:45:56;;;;;;;;;21.75;20.25;;;;;16.38;66.25;101922.69;4980418;28;45327;-47
2021/11/17 13:48:26;;;;;;;;;22.00;17.50;;;;;16.34;66.15;101926.28;4981983;28;45363;-45
2021/11/17 13:50:53;;;;;;;;;19.50;19.25;;;;;16.30;66.06;101936.09;4988603;28;45322;-44
2021/11/17 13:53:20;;;;;;;;;15.50;14.50;;;;;16.25;66.25;101937.94;4995072;28;45461;-44
2021/11/17 13:55:52;;;;;;;;;18.25;16.25;;;;;16.21;66.34;101944.22;4978980;28;45847;-44
2021/11/17 13:58:17;;;;;;;;;15.50;13.25;;;;;16.16;66.13;101948.72;4979631;28;45336;-45
2021/11/17 14:00:43;;;;;;;;;21.25;20.00;;;;;16.10;66.07;101939.13;4978852;28;45416;-49
2021/11/17 14:03:09;;;;;;;;;29.50;25.50;;;;;16.06;66.02;101945.34;4978754;28;45466;-46
2021/11/17 14:05:39;;;;;;;;;20.00;19.50;;;;;16.03;65.64;101948.06;4980001;28;45335;-47
2021/11/17 14:08:06;;;;;;;;;20.75;16.50;;;;;15.98;65.79;101945.50;4980101;28;45486;-47
2021/11/17 14:10:33;;;;;;;;;19.75;13.00;;;;;15.95;65.72;101942.91;4979752;28;45434;-52
2021/11/17 14:12:58;;;;;;;;;20.50;19.75;;;;;15.90;65.75;101940.34;4979721;28;45411;-46
2021/11/17 14:15:24;;;;;;;;;13.75;13.25;;;;;15.84;65.99;101937.78;4981955;28;45453;-48
2021/11/17 14:17:50;;;;;;;;;11.75;11.75;;;;;15.86;65.93;101943.94;4983030;28;46004;-49
2021/11/17 14:20:17;;;;;;;;;17.75;15.00;;;;;15.83;65.99;101941.34;4983267;28;45368;-45
2021/11/17 14:22:43;;;;;;;;;12.00;10.00;;;;;15.82;65.98;101944.03;4982999;28;45381;-47
2021/11/17 14:25:16;;;;;;;;;12.25;11.00;;;;;15.77;65.88;101941.41;4983422;28;45366;-45
2021/11/17 14:27:43;;;;;;;;;11.25;10.25;;;;;15.76;65.69;101952.94;4983156;28;47058;-46
2021/11/17 14:30:16;;;;;;;;;12.25;10.25;;;;;15.73;65.86;101955.63;4982882;28;45404;-43